Time;durP1;ratioP1;P1;durP2;ratioP2;P2;SDS_P1;SDS_P2;PMS_P1;PMS_P2;Temp;Humidity;BMP_temperature;BMP_pressure;BME280_temperature;BME280_humidity;BME280_pressure;Samples;Min_cycle;Max_cycle;Signal;HPM_P1;HPM_P2
2023/05/15 00:02:13;;;;;;;114.40;41.22;;;11.20;99.90;;;;;;5128625;27;20060;-82
2023/05/15 00:04:39;;;;;;;67.80;39.05;;;11.20;99.90;;;;;;5117733;27;20990;-82
2023/05/15 00:07:05;;;;;;;168.00;43.80;;;11.20;99.90;;;;;;5124530;27;20093;-82
2023/05/15 00:09:31;;;;;;;104.25;38.28;;;11.20;99.90;;;;;;5109805;27;20043;-82
2023/05/15 00:11:57;;;;;;;134.57;37.97;;;11.40;99.90;;;;;;5125462;27;20043;-82
2023/05/15 00:14:23;;;;;;;182.52;39.00;;;11.20;99.90;;;;;;5126396;27;20051;-82
2023/05/15 00:16:49;;;;;;;101.68;37.67;;;11.20;99.90;;;;;;5109246;27;20039;-82
2023/05/15 00:19:15;;;;;;;204.48;46.00;;;11.10;99.90;;;;;;5125929;27;20044;-82
2023/05/15 00:21:41;;;;;;;66.30;40.30;;;11.10;99.90;;;;;;5108462;27;20177;-82
2023/05/15 00:24:07;;;;;;;77.40;41.95;;;11.10;99.90;;;;;;5110470;27;20047;-81
2023/05/15 00:26:32;;;;;;;95.68;45.80;;;11.00;99.90;;;;;;5124568;27;20058;-82
2023/05/15 00:28:58;;;;;;;184.10;45.10;;;11.10;99.90;;;;;;5113765;27;20382;-82
2023/05/15 00:31:24;;;;;;;74.18;41.67;;;11.00;99.90;;;;;;5128358;27;20053;-82
2023/05/15 00:33:50;;;;;;;91.75;42.20;;;11.10;99.90;;;;;;5112861;27;20034;-82
2023/05/15 00:36:16;;;;;;;97.35;44.47;;;11.00;99.90;;;;;;5112597;27;20130;-82
2023/05/15 00:38:42;;;;;;;72.13;41.35;;;11.10;99.90;;;;;;5126427;27;20057;-82
2023/05/15 00:41:10;;;;;;;83.68;43.08;;;11.00;99.90;;;;;;5125426;27;20467;-82
2023/05/15 00:43:38;;;;;;;62.35;38.05;;;11.00;99.90;;;;;;5130570;27;20109;-82
2023/05/15 00:46:06;;;;;;;75.85;40.38;;;11.00;99.90;;;;;;5113094;27;20054;-82
2023/05/15 00:48:32;;;;;;;76.53;42.50;;;11.00;99.90;;;;;;5108786;27;20450;-82
2023/05/15 00:50:58;;;;;;;64.07;39.95;;;11.00;99.90;;;;;;5126096;27;20035;-82
2023/05/15 00:53:26;;;;;;;74.93;41.85;;;11.10;99.90;;;;;;5126975;27;20100;-82
2023/05/15 00:55:55;;;;;;;68.28;40.90;;;11.00;99.90;;;;;;5109269;27;20108;-82
2023/05/15 00:58:22;;;;;;;66.32;39.55;;;11.00;99.90;;;;;;5126582;28;20043;-82
2023/05/15 01:00:49;;;;;;;68.07;40.20;;;11.10;99.90;;;;;;5127035;27;20054;-82
2023/05/15 01:03:16;;;;;;;58.80;38.17;;;11.00;99.90;;;;;;5109062;28;20092;-82
2023/05/15 01:05:41;;;;;;;78.47;42.35;;;10.90;99.90;;;;;;5112052;27;20123;-82
2023/05/15 01:08:07;;;;;;;73.63;42.13;;;10.90;99.90;;;;;;5130956;27;20122;-82
2023/05/15 01:10:34;;;;;;;65.43;40.38;;;11.00;99.90;;;;;;5129294;27;20079;-82
2023/05/15 01:13:01;;;;;;;76.28;42.38;;;10.90;99.90;;;;;;5131147;27;20049;-82
2023/05/15 01:15:26;;;;;;;71.60;40.97;;;10.90;99.90;;;;;;5115605;27;20554;-82
2023/05/15 01:17:52;;;;;;;83.57;44.30;;;10.80;99.90;;;;;;5116892;27;20051;-82
2023/05/15 01:20:20;;;;;;;58.55;39.50;;;10.80;99.90;;;;;;5098177;27;20559;-82
2023/05/15 01:23:00;;;;;;;73.82;43.22;;;10.80;99.90;;;;;;5125644;27;20042;-81
2023/05/15 01:25:44;;;;;;;87.32;45.03;;;10.80;99.90;;;;;;5130267;27;20100;-82
2023/05/15 01:28:14;;;;;;;81.68;45.13;;;10.80;99.90;;;;;;5130468;27;20479;-82
2023/05/15 01:30:42;;;;;;;65.05;41.63;;;10.70;99.90;;;;;;5129874;27;20050;-82
2023/05/15 01:33:16;;;;;;;70.15;41.45;;;10.80;99.90;;;;;;5131149;27;20043;-83
2023/05/15 01:35:49;;;;;;;70.22;41.35;;;10.80;99.90;;;;;;5116212;27;20054;-82
2023/05/15 01:38:38;;;;;;;62.65;40.85;;;10.80;99.90;;;;;;5132654;27;20354;-82
2023/05/15 01:41:13;;;;;;;67.75;41.45;;;10.90;99.90;;;;;;5115240;27;20416;-82
2023/05/15 01:43:43;;;;;;;83.20;43.03;;;10.80;99.90;;;;;;5095730;27;20043;-82
2023/05/15 01:46:13;;;;;;;69.05;41.20;;;10.70;99.90;;;;;;5129690;27;20039;-82
2023/05/15 01:48:40;;;;;;;95.72;46.25;;;10.70;99.90;;;;;;5130502;27;20039;-82
2023/05/15 01:51:09;;;;;;;71.57;41.92;;;10.70;99.90;;;;;;5109157;27;20070;-82
2023/05/15 01:53:36;;;;;;;77.30;43.70;;;10.70;99.90;;;;;;5104457;27;20043;-82
2023/05/15 01:56:04;;;;;;;204.57;47.83;;;10.70;99.90;;;;;;5111083;27;20047;-81
2023/05/15 01:58:32;;;;;;;155.82;45.35;;;10.80;99.90;;;;;;5120946;27;20051;-82
2023/05/15 02:01:00;;;;;;;96.60;44.95;;;10.80;99.90;;;;;;5128478;27;20035;-82
2023/05/15 02:03:26;;;;;;;166.45;46.20;;;10.80;99.90;;;;;;5116038;27;20569;-82
2023/05/15 02:05:53;;;;;;;110.75;43.42;;;10.80;99.90;;;;;;5127727;27;20122;-82
2023/05/15 02:08:20;;;;;;;267.38;40.47;;;10.80;99.90;;;;;;5121695;27;20054;-82
2023/05/15 02:10:47;;;;;;;132.73;36.00;;;10.70;99.90;;;;;;5146660;27;20043;-82
2023/05/15 02:13:13;;;;;;;90.18;36.30;;;10.70;99.90;;;;;;5107716;27;20489;-82
2023/05/15 02:15:39;;;;;;;148.73;36.70;;;10.70;99.90;;;;;;5115005;27;20179;-82
2023/05/15 02:18:05;;;;;;;149.00;36.72;;;10.60;99.90;;;;;;5116078;27;20038;-82
2023/05/15 02:20:31;;;;;;;89.63;38.63;;;10.50;99.90;;;;;;5113451;27;20039;-82
2023/05/15 02:22:56;;;;;;;294.33;45.17;;;10.50;99.90;;;;;;5133084;27;20054;-82
2023/05/15 02:25:40;;;;;;;406.35;51.67;;;10.50;99.90;;;;;;5127882;27;20043;-82
2023/05/15 02:28:11;;;;;;;78.70;41.78;;;10.40;99.90;;;;;;5127704;27;20069;-82
2023/05/15 02:30:44;;;;;;;89.38;41.38;;;10.40;99.90;;;;;;5132244;27;20042;-81
2023/05/15 02:33:13;;;;;;;214.77;47.15;;;10.40;99.90;;;;;;5132146;27;20127;-82
2023/05/15 02:35:47;;;;;;;79.75;43.40;;;10.40;99.90;;;;;;5114728;27;20456;-81
2023/05/15 02:38:17;;;;;;;72.00;43.38;;;10.30;99.90;;;;;;5132351;27;20038;-82
2023/05/15 02:40:45;;;;;;;135.15;48.00;;;10.30;99.90;;;;;;5131394;27;20053;-83
2023/05/15 02:43:12;;;;;;;82.07;43.92;;;10.30;99.90;;;;;;5132304;27;20075;-82
2023/05/15 02:45:39;;;;;;;220.93;49.83;;;10.30;99.90;;;;;;5110927;27;20046;-82
2023/05/15 02:48:06;;;;;;;144.60;43.63;;;10.30;99.90;;;;;;5127772;27;20042;-82
2023/05/15 02:50:32;;;;;;;75.78;42.17;;;10.40;99.90;;;;;;5103306;27;20042;-82
2023/05/15 02:53:06;;;;;;;106.13;47.20;;;10.40;99.90;;;;;;5131811;27;20111;-82
2023/05/15 02:55:32;;;;;;;63.70;40.83;;;10.50;99.90;;;;;;5130317;27;20200;-82
2023/05/15 02:57:58;;;;;;;128.27;41.42;;;10.40;99.90;;;;;;5112066;27;20078;-82
2023/05/15 03:00:25;;;;;;;64.18;35.78;;;10.40;99.90;;;;;;5107762;27;20162;-83
2023/05/15 03:02:50;;;;;;;73.38;35.83;;;10.40;99.90;;;;;;5126795;27;20043;-83
2023/05/15 03:05:16;;;;;;;147.55;39.30;;;10.20;99.90;;;;;;5122151;27;20509;-82
2023/05/15 03:07:42;;;;;;;109.85;37.80;;;10.10;99.90;;;;;;5131408;27;20102;-82
2023/05/15 03:10:07;;;;;;;69.32;37.70;;;10.10;99.90;;;;;;5131427;27;20084;-82
2023/05/15 03:12:33;;;;;;;225.82;46.50;;;10.10;99.90;;;;;;5114356;27;20038;-82
2023/05/15 03:15:00;;;;;;;84.70;40.40;;;10.10;99.90;;;;;;5110472;27;20065;-82
2023/05/15 03:17:26;;;;;;;105.35;40.92;;;10.00;99.90;;;;;;5106880;28;20506;-82
2023/05/15 03:19:52;;;;;;;74.22;41.88;;;10.10;99.90;;;;;;5121538;27;20050;-82
2023/05/15 03:22:18;;;;;;;105.93;43.13;;;10.00;99.90;;;;;;5113836;27;20066;-83
2023/05/15 03:24:44;;;;;;;108.68;42.63;;;10.10;99.90;;;;;;5104514;27;20493;-82
2023/05/15 03:27:09;;;;;;;141.32;40.50;;;9.90;99.90;;;;;;5127911;27;20047;-83
2023/05/15 03:29:35;;;;;;;160.20;37.13;;;9.90;99.90;;;;;;5107020;28;20066;-82
2023/05/15 03:32:01;;;;;;;182.13;38.75;;;9.90;99.90;;;;;;5113930;27;20035;-82
2023/05/15 03:34:26;;;;;;;201.48;38.72;;;9.80;99.90;;;;;;5110518;27;20051;-82
2023/05/15 03:36:52;;;;;;;291.27;42.90;;;9.80;99.90;;;;;;5122809;27;20039;-82
2023/05/15 03:39:18;;;;;;;209.43;39.05;;;9.70;99.90;;;;;;5121038;27;20046;-82
2023/05/15 03:41:43;;;;;;;121.25;37.47;;;9.70;99.90;;;;;;5114607;27;20039;-82
2023/05/15 03:44:09;;;;;;;92.28;38.38;;;9.70;99.90;;;;;;5109900;27;20039;-82
2023/05/15 03:46:35;;;;;;;159.55;41.58;;;9.60;99.90;;;;;;5126991;27;20076;-82
2023/05/15 03:49:00;;;;;;;126.88;33.95;;;9.90;99.90;;;;;;5127981;27;20043;-82
2023/05/15 03:51:26;;;;;;;66.32;29.17;;;9.70;99.90;;;;;;5125665;27;20043;-82
2023/05/15 03:53:52;;;;;;;60.08;30.75;;;9.60;99.90;;;;;;5108047;27;20401;-82
2023/05/15 03:56:17;;;;;;;58.85;30.25;;;9.50;99.90;;;;;;5127092;27;20054;-82
2023/05/15 03:58:43;;;;;;;50.90;28.70;;;9.50;99.90;;;;;;5109640;27;20612;-82
2023/05/15 04:01:09;;;;;;;61.03;29.55;;;9.40;99.90;;;;;;5110013;27;20043;-82
2023/05/15 04:03:34;;;;;;;49.72;29.80;;;9.50;99.90;;;;;;5101565;28;20036;-82
2023/05/15 04:06:00;;;;;;;48.05;30.45;;;9.60;99.90;;;;;;5126663;27;20540;-82
2023/05/15 04:08:25;;;;;;;53.30;31.77;;;9.50;99.90;;;;;;5109331;27;20455;-82
2023/05/15 04:10:51;;;;;;;46.22;29.60;;;9.60;99.90;;;;;;5127449;27;20031;-82
2023/05/15 04:13:17;;;;;;;41.08;29.30;;;9.60;99.90;;;;;;5123449;27;20036;-83
2023/05/15 04:15:42;;;;;;;42.47;30.30;;;9.80;99.90;;;;;;5096842;27;20088;-81
2023/05/15 04:18:08;;;;;;;41.13;29.83;;;9.60;99.90;;;;;;5126306;27;20047;-82
2023/05/15 04:20:34;;;;;;;44.50;31.33;;;9.70;99.90;;;;;;5103967;27;20047;-81
2023/05/15 04:23:00;;;;;;;41.85;31.00;;;9.80;99.90;;;;;;5098684;28;20046;-81
2023/05/15 04:25:26;;;;;;;39.47;31.13;;;9.80;99.90;;;;;;5108822;27;20045;-81
2023/05/15 04:27:52;;;;;;;41.17;31.40;;;9.80;99.90;;;;;;5109528;27;20043;-81
2023/05/15 04:30:17;;;;;;;40.85;31.77;;;9.80;99.90;;;;;;5110247;27;20083;-81
2023/05/15 04:32:43;;;;;;;38.58;30.60;;;9.90;99.90;;;;;;5105024;28;20509;-81
2023/05/15 04:35:12;;;;;;;41.05;31.08;;;9.90;99.90;;;;;;5123640;27;20067;-81
2023/05/15 04:37:38;;;;;;;35.05;29.23;;;10.00;99.90;;;;;;5100445;28;20439;-81
2023/05/15 04:40:06;;;;;;;35.00;29.40;;;10.00;99.90;;;;;;5108984;27;20082;-81
2023/05/15 04:42:33;;;;;;;42.45;30.35;;;10.00;99.90;;;;;;5092731;28;20046;-81
2023/05/15 04:44:58;;;;;;;35.17;28.48;;;10.10;99.90;;;;;;5123565;27;20042;-81
2023/05/15 04:47:24;;;;;;;37.25;29.52;;;10.10;99.90;;;;;;5114866;27;20386;-81
2023/05/15 04:49:50;;;;;;;35.97;28.85;;;10.30;99.90;;;;;;5109272;28;20051;-81
2023/05/15 04:52:16;;;;;;;31.60;26.20;;;10.20;99.90;;;;;;5105785;28;20040;-82
2023/05/15 04:54:42;;;;;;;30.80;25.40;;;10.30;99.90;;;;;;5122720;28;20046;-81
2023/05/15 04:57:08;;;;;;;28.85;24.30;;;10.30;99.90;;;;;;5118910;27;20126;-81
2023/05/15 04:59:34;;;;;;;28.88;23.73;;;10.40;99.90;;;;;;5082809;28;20043;-81
2023/05/15 05:02:01;;;;;;;31.40;24.67;;;10.40;99.90;;;;;;5101725;28;20125;-81
2023/05/15 05:04:27;;;;;;;28.40;24.17;;;10.40;99.90;;;;;;5095587;28;20055;-81
2023/05/15 05:06:52;;;;;;;30.95;24.42;;;10.50;99.90;;;;;;5120834;28;20629;-81
2023/05/15 05:09:19;;;;;;;28.95;23.45;;;10.60;99.90;;;;;;5095253;28;20184;-81
2023/05/15 05:11:45;;;;;;;22.05;19.73;;;10.70;99.90;;;;;;5109139;28;20400;-81
2023/05/15 05:14:13;;;;;;;25.42;20.38;;;10.80;99.90;;;;;;5125785;28;20047;-81
2023/05/15 05:16:38;;;;;;;22.00;18.80;;;10.80;99.90;;;;;;5117965;28;20474;-81
2023/05/15 05:19:05;;;;;;;19.55;16.95;;;10.80;99.90;;;;;;5113578;28;20076;-82
2023/05/15 05:21:31;;;;;;;21.27;17.20;;;10.80;99.90;;;;;;5099805;28;20043;-82
2023/05/15 05:23:57;;;;;;;22.02;16.15;;;10.80;99.90;;;;;;5096913;28;20055;-82
2023/05/15 05:26:23;;;;;;;20.10;16.20;;;10.80;99.90;;;;;;5103593;28;20044;-81
2023/05/15 05:28:48;;;;;;;18.25;15.38;;;10.80;99.90;;;;;;5108722;28;20039;-82
2023/05/15 05:31:14;;;;;;;19.05;16.40;;;10.90;99.90;;;;;;5108608;28;20069;-81
2023/05/15 05:33:40;;;;;;;18.88;15.90;;;11.00;99.90;;;;;;5106053;28;20043;-81
2023/05/15 05:36:06;;;;;;;20.27;16.88;;;11.10;99.90;;;;;;5121408;28;20514;-82
2023/05/15 05:38:32;;;;;;;22.33;17.20;;;11.20;99.90;;;;;;5125439;28;20104;-81
2023/05/15 05:41:00;;;;;;;20.30;16.55;;;11.20;99.90;;;;;;5125965;28;20129;-81
2023/05/15 05:43:26;;;;;;;21.73;18.27;;;11.40;99.90;;;;;;5095345;28;20405;-81
2023/05/15 05:45:51;;;;;;;21.65;17.70;;;11.40;99.90;;;;;;5101833;28;20098;-81
2023/05/15 05:48:17;;;;;;;17.90;15.10;;;11.40;99.90;;;;;;5113500;28;20078;-81
2023/05/15 05:50:43;;;;;;;16.65;14.65;;;11.50;99.90;;;;;;5101138;28;20458;-82
2023/05/15 05:53:09;;;;;;;16.92;12.77;;;11.40;99.90;;;;;;5097053;28;20054;-82
2023/05/15 05:55:34;;;;;;;18.77;15.55;;;11.40;99.90;;;;;;5118391;28;20628;-81
2023/05/15 05:58:00;;;;;;;18.02;15.20;;;11.50;99.90;;;;;;5095791;28;20090;-82
2023/05/15 06:00:26;;;;;;;19.98;16.33;;;11.50;99.90;;;;;;5105555;27;20047;-81
2023/05/15 06:02:57;;;;;;;18.33;16.40;;;11.60;99.90;;;;;;5108514;28;20088;-82
2023/05/15 06:05:24;;;;;;;21.90;15.85;;;11.60;99.90;;;;;;5109314;27;20059;-82
2023/05/15 06:07:50;;;;;;;18.70;14.90;;;11.70;99.90;;;;;;5129472;27;20445;-82
2023/05/15 06:10:16;;;;;;;19.15;13.30;;;11.80;99.90;;;;;;5111451;27;20065;-81
2023/05/15 06:12:41;;;;;;;19.98;15.57;;;11.80;99.90;;;;;;5111109;27;20571;-81
2023/05/15 06:15:07;;;;;;;17.52;13.63;;;11.80;99.90;;;;;;5129402;27;20062;-82
2023/05/15 06:17:33;;;;;;;18.40;13.07;;;11.80;99.90;;;;;;5128333;27;20043;-82
2023/05/15 06:19:59;;;;;;;15.88;12.18;;;11.80;99.90;;;;;;5111152;27;20054;-82
2023/05/15 06:22:24;;;;;;;17.10;14.50;;;11.90;99.90;;;;;;5128599;27;20039;-82
2023/05/15 06:24:50;;;;;;;20.17;14.23;;;12.00;99.90;;;;;;5128197;27;20054;-81
2023/05/15 06:27:16;;;;;;;16.65;14.32;;;12.00;99.90;;;;;;5125781;27;20039;-81
2023/05/15 06:29:41;;;;;;;18.13;15.85;;;12.10;99.90;;;;;;5116006;27;20035;-81
2023/05/15 06:32:08;;;;;;;17.95;16.02;;;12.20;99.90;;;;;;5122120;27;20528;-81
2023/05/15 06:34:34;;;;;;;19.35;15.90;;;12.30;99.90;;;;;;5122573;27;20130;-82
2023/05/15 06:37:01;;;;;;;25.27;16.67;;;12.50;99.90;;;;;;5100326;27;20043;-82
2023/05/15 06:39:26;;;;;;;22.42;17.15;;;12.70;99.90;;;;;;5106069;27;20152;-82
2023/05/15 06:41:56;;;;;;;20.98;17.15;;;12.90;99.90;;;;;;5096942;27;20510;-82
2023/05/15 06:44:22;;;;;;;23.20;16.92;;;13.10;99.90;;;;;;5118842;27;20635;-82
2023/05/15 06:46:48;;;;;;;18.48;15.30;;;13.40;99.90;;;;;;5121798;27;20126;-82
2023/05/15 06:49:14;;;;;;;17.75;14.95;;;13.50;99.90;;;;;;5137021;27;20092;-82
2023/05/15 06:51:39;;;;;;;14.02;12.35;;;13.60;99.90;;;;;;5096885;27;20043;-83
2023/05/15 06:54:05;;;;;;;15.77;11.18;;;13.60;99.90;;;;;;5103478;27;20051;-81
2023/05/15 06:56:31;;;;;;;14.68;11.13;;;13.60;99.90;;;;;;5082865;28;20339;-82
2023/05/15 06:58:57;;;;;;;9.77;8.30;;;13.60;99.90;;;;;;5121696;27;20561;-81
2023/05/15 07:01:22;;;;;;;13.85;9.30;;;13.60;99.90;;;;;;5107314;27;20042;-83
2023/05/15 07:03:52;;;;;;;12.35;9.48;;;13.50;99.90;;;;;;5099345;27;20445;-82
2023/05/15 07:06:20;;;;;;;14.40;9.52;;;13.60;99.90;;;;;;5104586;28;20043;-82
2023/05/15 07:08:45;;;;;;;12.55;8.93;;;13.70;99.90;;;;;;5086983;27;20063;-83
2023/05/15 07:11:11;;;;;;;10.48;8.38;;;13.80;99.90;;;;;;5121812;27;20079;-81
2023/05/15 07:13:37;;;;;;;13.73;9.38;;;13.80;99.90;;;;;;5120924;27;20560;-81
2023/05/15 07:16:03;;;;;;;13.20;8.63;;;13.80;99.90;;;;;;5107757;27;20043;-81
2023/05/15 07:18:29;;;;;;;12.23;8.95;;;13.80;99.90;;;;;;5108006;27;20047;-82
2023/05/15 07:20:55;;;;;;;12.55;8.80;;;13.70;99.90;;;;;;5096267;28;20044;-82
2023/05/15 07:23:20;;;;;;;11.18;8.63;;;13.60;99.90;;;;;;5095536;27;20612;-82
2023/05/15 07:25:47;;;;;;;11.10;8.57;;;13.50;99.90;;;;;;5125824;27;20039;-82
2023/05/15 07:28:12;;;;;;;12.65;8.35;;;13.50;99.90;;;;;;5123956;27;20044;-81
2023/05/15 07:30:38;;;;;;;14.32;9.48;;;13.50;99.90;;;;;;5124781;27;20051;-81
2023/05/15 07:33:04;;;;;;;11.27;8.25;;;13.60;99.90;;;;;;5121566;27;20076;-81
2023/05/15 07:35:30;;;;;;;16.73;9.50;;;13.80;99.90;;;;;;5123902;27;20091;-81
2023/05/15 07:37:55;;;;;;;10.68;8.05;;;13.80;99.90;;;;;;5102101;27;20043;-81
2023/05/15 07:40:21;;;;;;;13.75;9.00;;;13.90;99.90;;;;;;5114177;27;20061;-81
2023/05/15 07:42:47;;;;;;;14.05;9.25;;;14.10;99.90;;;;;;5118075;27;20054;-82
2023/05/15 07:45:12;;;;;;;12.38;9.10;;;14.30;99.90;;;;;;5108468;27;20494;-82
2023/05/15 07:47:43;;;;;;;10.82;7.32;;;14.40;99.90;;;;;;5124466;27;20042;-82
2023/05/15 07:50:09;;;;;;;11.27;7.75;;;14.50;99.90;;;;;;5124604;27;20043;-81
2023/05/15 07:52:35;;;;;;;11.27;8.25;;;14.80;99.90;;;;;;5107557;27;20039;-82
2023/05/15 07:55:01;;;;;;;11.73;8.57;;;14.50;99.90;;;;;;5104614;28;20112;-81
2023/05/15 07:57:27;;;;;;;11.43;8.70;;;14.40;99.90;;;;;;5120949;27;20054;-81
2023/05/15 07:59:53;;;;;;;12.07;7.07;;;14.50;99.90;;;;;;5124975;27;20094;-82
2023/05/15 08:02:19;;;;;;;11.13;7.47;;;14.60;99.90;;;;;;5107166;27;20474;-82
2023/05/15 08:04:44;;;;;;;15.43;8.02;;;14.60;99.90;;;;;;5107049;27;20100;-82
2023/05/15 08:07:12;;;;;;;10.30;8.15;;;14.70;99.90;;;;;;5116593;27;20050;-82
2023/05/15 08:09:38;;;;;;;13.93;9.27;;;14.70;99.90;;;;;;5104361;27;20038;-84
2023/05/15 08:12:19;;;;;;;12.90;8.55;;;14.80;99.90;;;;;;5119469;27;20099;-81
2023/05/15 08:14:51;;;;;;;12.48;9.70;;;15.00;99.90;;;;;;5125144;27;20063;-82
2023/05/15 08:17:18;;;;;;;11.73;7.72;;;15.00;99.90;;;;;;5125782;27;20050;-81
2023/05/15 08:19:44;;;;;;;12.18;7.50;;;15.00;99.90;;;;;;5125964;27;20551;-82
2023/05/15 08:22:10;;;;;;;16.38;7.60;;;15.00;99.90;;;;;;5126400;27;20039;-82
2023/05/15 08:24:36;;;;;;;16.98;8.75;;;15.10;99.90;;;;;;5125358;27;20612;-82
2023/05/15 08:27:04;;;;;;;10.07;8.20;;;15.20;99.90;;;;;;5116188;27;20074;-81
2023/05/15 08:29:30;;;;;;;11.48;7.85;;;15.30;99.90;;;;;;5126633;27;20092;-82
2023/05/15 08:31:55;;;;;;;10.15;7.85;;;15.30;99.90;;;;;;5125925;27;20039;-82
2023/05/15 08:34:21;;;;;;;14.63;7.78;;;15.30;99.90;;;;;;5123357;27;20414;-82
2023/05/15 08:36:47;;;;;;;11.25;7.90;;;15.30;99.90;;;;;;5138079;27;20459;-82
2023/05/15 08:39:12;;;;;;;9.05;7.70;;;15.10;99.90;;;;;;5114632;27;20041;-82
2023/05/15 08:41:56;;;;;;;10.20;7.32;;;15.10;99.90;;;;;;5126464;27;20579;-82
2023/05/15 08:44:23;;;;;;;10.20;8.05;;;15.00;99.90;;;;;;5107506;27;20126;-82
2023/05/15 08:46:51;;;;;;;16.75;8.35;;;15.00;99.90;;;;;;5122161;27;20044;-82
2023/05/15 08:49:31;;;;;;;12.35;8.07;;;15.00;99.90;;;;;;5121852;27;20135;-82
2023/05/15 08:51:57;;;;;;;9.80;6.95;;;15.00;99.90;;;;;;5106243;28;20122;-82
2023/05/15 08:54:24;;;;;;;10.85;7.60;;;15.20;99.90;;;;;;5106030;28;20554;-82
2023/05/15 08:56:49;;;;;;;11.23;7.18;;;15.10;99.90;;;;;;5132075;27;20044;-82
2023/05/15 08:59:15;;;;;;;10.32;7.65;;;15.10;99.90;;;;;;5124286;28;20416;-82
2023/05/15 09:01:41;;;;;;;11.50;7.90;;;15.20;99.90;;;;;;5121707;28;20511;-82
2023/05/15 09:04:07;;;;;;;10.90;7.80;;;15.20;99.90;;;;;;5121506;28;20051;-82
2023/05/15 09:06:33;;;;;;;9.40;7.18;;;15.10;99.90;;;;;;5098850;28;20035;-81
2023/05/15 09:09:01;;;;;;;9.50;7.68;;;15.10;99.90;;;;;;5126723;28;20050;-82
2023/05/15 09:11:28;;;;;;;13.35;7.32;;;15.20;99.90;;;;;;5125895;28;20671;-82
2023/05/15 09:13:58;;;;;;;11.48;6.93;;;15.30;99.90;;;;;;5109140;28;20039;-81
2023/05/15 09:16:24;;;;;;;14.10;7.13;;;15.30;99.90;;;;;;5125169;28;20058;-81
2023/05/15 09:18:51;;;;;;;12.63;7.80;;;15.40;99.90;;;;;;5109533;28;20104;-82
2023/05/15 09:21:28;;;;;;;9.45;6.72;;;15.50;99.90;;;;;;5104507;28;20044;-82
2023/05/15 09:23:55;;;;;;;12.05;7.35;;;15.60;99.90;;;;;;5110488;28;20063;-82
2023/05/15 09:26:21;;;;;;;12.57;6.88;;;15.70;99.90;;;;;;5118908;28;20043;-81
2023/05/15 09:28:47;;;;;;;8.98;6.75;;;15.80;99.90;;;;;;5113392;28;20047;-82
2023/05/15 09:31:13;;;;;;;9.43;7.32;;;15.90;99.90;;;;;;5119539;28;20085;-82
2023/05/15 09:33:41;;;;;;;11.30;7.38;;;16.00;99.90;;;;;;5126667;27;20524;-82
2023/05/15 09:36:08;;;;;;;10.07;7.40;;;16.10;99.90;;;;;;5111974;27;20506;-82
2023/05/15 09:38:40;;;;;;;10.70;8.15;;;16.20;99.90;;;;;;5112326;27;20635;-82
2023/05/15 09:41:08;;;;;;;10.23;7.25;;;16.30;99.90;;;;;;5112787;27;20052;-82
2023/05/15 09:43:36;;;;;;;8.55;6.72;;;16.30;99.90;;;;;;5125826;27;20089;-83
2023/05/15 09:46:03;;;;;;;14.23;6.78;;;16.30;99.90;;;;;;5108568;27;20062;-82
2023/05/15 09:48:30;;;;;;;13.85;8.02;;;16.40;99.90;;;;;;5112952;27;20434;-82
2023/05/15 09:50:56;;;;;;;12.88;8.40;;;16.50;99.90;;;;;;5128017;27;20039;-82
2023/05/15 09:53:22;;;;;;;9.05;7.70;;;16.50;99.90;;;;;;5102762;28;20580;-83
2023/05/15 09:55:49;;;;;;;9.02;7.38;;;16.60;99.90;;;;;;5108965;27;20121;-82
2023/05/15 09:58:17;;;;;;;12.18;8.32;;;16.60;99.90;;;;;;5109839;28;20079;-82
2023/05/15 10:00:44;;;;;;;11.13;7.60;;;16.60;99.90;;;;;;5108980;27;20424;-82
2023/05/15 10:03:10;;;;;;;12.73;7.35;;;16.70;99.90;;;;;;5105532;28;20582;-82
2023/05/15 10:05:37;;;;;;;13.65;6.78;;;16.80;99.90;;;;;;5091181;28;20032;-80
2023/05/15 10:08:03;;;;;;;8.63;5.35;;;16.90;99.90;;;;;;5113421;27;20031;-80
2023/05/15 10:10:30;;;;;;;7.50;4.50;;;16.90;99.90;;;;;;5125766;27;21000;-81
2023/05/15 10:13:02;;;;;;;8.13;5.07;;;16.90;99.90;;;;;;5120817;27;20047;-82
2023/05/15 10:15:28;;;;;;;7.88;4.75;;;16.90;99.90;;;;;;5111555;27;20051;-81
2023/05/15 10:17:54;;;;;;;6.80;4.93;;;16.90;99.90;;;;;;5128735;27;20051;-80
2023/05/15 10:20:22;;;;;;;11.05;4.97;;;17.10;99.90;;;;;;5127738;27;20050;-80
2023/05/15 10:22:50;;;;;;;11.05;4.95;;;17.20;99.90;;;;;;5130003;27;20051;-80
2023/05/15 10:25:20;;;;;;;10.98;5.68;;;17.30;99.90;;;;;;5128305;27;20079;-79
2023/05/15 10:27:48;;;;;;;5.22;4.30;;;17.40;99.90;;;;;;5131445;27;20035;-79
2023/05/15 10:30:16;;;;;;;10.43;4.68;;;17.30;99.90;;;;;;5125651;27;20483;-79
2023/05/15 10:32:43;;;;;;;7.70;5.03;;;17.20;99.90;;;;;;5140909;27;20086;-79
2023/05/15 10:35:10;;;;;;;6.05;4.55;;;17.10;99.90;;;;;;5122604;27;20047;-79
2023/05/15 10:37:37;;;;;;;6.97;5.22;;;17.20;99.90;;;;;;5098972;28;20784;-79
2023/05/15 10:40:08;;;;;;;9.65;5.75;;;17.10;99.90;;;;;;5123905;27;20042;-79
2023/05/15 10:42:35;;;;;;;9.88;5.35;;;17.10;99.90;;;;;;5105727;27;20480;-79
2023/05/15 10:45:01;;;;;;;8.40;4.88;;;17.20;99.90;;;;;;5121565;27;20050;-79
2023/05/15 10:47:29;;;;;;;10.15;5.30;;;17.20;99.90;;;;;;5119447;27;20060;-80
2023/05/15 10:49:56;;;;;;;13.68;5.55;;;17.40;99.90;;;;;;5129122;27;20087;-81
2023/05/15 10:52:22;;;;;;;9.75;5.43;;;17.60;99.90;;;;;;5124432;27;20048;-80
2023/05/15 10:54:49;;;;;;;7.53;5.15;;;17.80;99.90;;;;;;5129278;27;20058;-81
2023/05/15 10:57:15;;;;;;;7.90;5.72;;;17.70;99.90;;;;;;5128063;27;20117;-80
2023/05/15 10:59:40;;;;;;;12.15;5.93;;;17.60;99.90;;;;;;5127997;27;20118;-80
2023/05/15 11:02:22;;;;;;;10.02;5.72;;;17.50;99.90;;;;;;5129982;27;20259;-80
2023/05/15 11:05:00;;;;;;;7.43;4.97;;;17.60;99.90;;;;;;5108800;27;20131;-80
2023/05/15 11:07:27;;;;;;;9.55;5.80;;;17.70;99.90;;;;;;5121544;27;20078;-80
2023/05/15 11:09:53;;;;;;;11.73;5.90;;;17.80;99.90;;;;;;5121711;27;20047;-80
2023/05/15 11:12:19;;;;;;;8.68;5.53;;;18.00;99.90;;;;;;5128260;27;20149;-81
2023/05/15 11:14:57;;;;;;;10.63;5.90;;;18.10;99.90;;;;;;5124157;27;20130;-81
2023/05/15 11:17:23;;;;;;;11.05;5.97;;;18.10;99.90;;;;;;5119474;27;20056;-80
2023/05/15 11:19:49;;;;;;;8.63;5.35;;;18.00;99.90;;;;;;5122329;27;20146;-80
2023/05/15 11:22:17;;;;;;;14.05;5.65;;;17.90;99.90;;;;;;5101858;28;20475;-81
2023/05/15 11:24:50;;;;;;;10.23;5.75;;;17.80;99.90;;;;;;5110910;27;20391;-79
2023/05/15 11:27:19;;;;;;;8.32;5.07;;;17.80;99.90;;;;;;5072790;28;20097;-79
2023/05/15 11:30:09;;;;;;;10.57;4.88;;;17.80;99.90;;;;;;5125299;27;20047;-79
2023/05/15 11:32:55;;;;;;;12.40;6.88;;;17.90;99.90;;;;;;5124449;27;20062;-80
2023/05/15 11:35:23;;;;;;;9.57;6.88;;;17.90;99.90;;;;;;5126720;27;20091;-79
2023/05/15 11:37:53;;;;;;;11.35;7.05;;;17.80;99.90;;;;;;5128015;27;20100;-79
2023/05/15 11:40:23;;;;;;;13.10;6.78;;;17.70;99.90;;;;;;5128438;27;20059;-79
2023/05/15 11:43:17;;;;;;;12.90;6.20;;;17.60;99.90;;;;;;5120499;27;20039;-79
2023/05/15 11:45:47;;;;;;;9.77;5.90;;;17.60;99.90;;;;;;5090206;28;20056;-78
2023/05/15 11:48:15;;;;;;;10.45;5.88;;;17.60;99.90;;;;;;5116462;27;20039;-79
2023/05/15 11:50:41;;;;;;;11.48;5.80;;;17.60;99.90;;;;;;5127247;27;20057;-79
2023/05/15 11:53:08;;;;;;;10.77;5.72;;;17.70;99.90;;;;;;5127953;27;20613;-79
2023/05/15 11:55:36;;;;;;;10.10;5.90;;;17.60;99.90;;;;;;5113187;27;20039;-78
2023/05/15 11:58:04;;;;;;;12.63;6.00;;;17.60;99.90;;;;;;5106795;28;20182;-79
2023/05/15 12:00:30;;;;;;;10.35;5.95;;;17.70;99.90;;;;;;5121994;27;20135;-79
2023/05/15 12:02:56;;;;;;;9.35;5.65;;;17.50;99.90;;;;;;5122044;27;20071;-79
2023/05/15 12:05:22;;;;;;;8.80;5.78;;;17.60;99.90;;;;;;5102597;27;20055;-79
2023/05/15 12:07:48;;;;;;;9.15;5.63;;;17.50;99.90;;;;;;5107380;28;20036;-79
2023/05/15 12:10:14;;;;;;;7.32;5.65;;;17.60;99.90;;;;;;5120666;27;20049;-79
2023/05/15 12:12:41;;;;;;;9.27;5.70;;;17.40;99.90;;;;;;5124027;27;20247;-80
2023/05/15 12:15:10;;;;;;;8.35;5.50;;;17.50;99.90;;;;;;5132089;27;20070;-79
2023/05/15 12:17:37;;;;;;;9.25;5.78;;;17.60;99.90;;;;;;5129188;27;20557;-79
2023/05/15 12:20:04;;;;;;;9.35;6.32;;;17.70;99.90;;;;;;5130684;27;20055;-79
2023/05/15 12:22:35;;;;;;;9.88;6.30;;;17.60;99.90;;;;;;5149103;27;20045;-79
2023/05/15 12:25:01;;;;;;;13.63;5.97;;;17.50;99.90;;;;;;5109976;27;20107;-79
2023/05/15 12:27:27;;;;;;;10.48;6.43;;;17.50;99.90;;;;;;5111447;27;20126;-79
2023/05/15 12:29:53;;;;;;;10.05;6.55;;;17.40;99.90;;;;;;5113911;27;20110;-80
2023/05/15 12:32:19;;;;;;;13.10;6.50;;;17.30;99.90;;;;;;5116217;27;20047;-79
2023/05/15 12:34:45;;;;;;;9.23;5.93;;;17.20;99.90;;;;;;5127908;27;20045;-78